createdAt,value
2018-09-04T00:00:51.224Z,22.53
2018-09-04T00:03:21.095Z,26.90
2018-09-04T00:05:50.883Z,27.77
2018-09-04T00:08:25.941Z,26.83
2018-09-04T00:10:55.752Z,27.23
2018-09-04T00:13:25.467Z,26.63
2018-09-04T00:15:55.569Z,27.57
2018-09-04T00:18:25.309Z,26.47
2018-09-04T00:20:55.071Z,27.97
2018-09-04T00:23:24.827Z,30.33
2018-09-04T00:25:54.547Z,29.53
2018-09-04T00:28:24.306Z,27.00
2018-09-04T00:30:54.046Z,26.73
2018-09-04T00:33:23.819Z,27.80
2018-09-04T00:35:53.635Z,27.80
2018-09-04T00:38:23.371Z,28.13
2018-09-04T00:40:53.170Z,26.03
2018-09-04T00:43:23.505Z,24.93
2018-09-04T00:45:53.306Z,26.10
2018-09-04T00:48:23.059Z,26.77
2018-09-04T00:50:52.886Z,27.13
2018-09-04T00:53:22.649Z,29.03
2018-09-04T00:55:52.434Z,26.97
2018-09-04T00:58:22.236Z,27.07
2018-09-04T01:00:52.059Z,27.47
2018-09-04T01:03:21.786Z,28.70
2018-09-04T01:05:51.575Z,28.13
2018-09-04T01:08:21.338Z,27.00
2018-09-04T01:10:51.132Z,27.53
2018-09-04T01:13:20.886Z,26.70
2018-09-04T01:15:50.550Z,25.93
2018-09-04T01:18:20.273Z,26.90
2018-09-04T01:20:50.011Z,26.40
2018-09-04T01:23:19.715Z,25.20
2018-09-04T01:25:49.409Z,23.73
2018-09-04T01:28:19.207Z,22.47
2018-09-04T01:30:48.951Z,22.13
2018-09-04T01:33:18.711Z,21.67
2018-09-04T01:35:48.470Z,20.93
2018-09-04T01:38:18.177Z,22.40
2018-09-04T01:40:47.826Z,23.23
2018-09-04T01:43:17.557Z,21.63
2018-09-04T01:45:47.301Z,22.93
2018-09-04T01:48:17.031Z,23.37
2018-09-04T01:50:46.717Z,22.63
2018-09-04T01:53:16.733Z,21.33
2018-09-04T01:55:46.488Z,24.37
2018-09-04T01:58:16.346Z,22.77
2018-09-04T02:00:46.131Z,22.80
2018-09-04T02:03:15.897Z,22.87
2018-09-04T02:05:45.671Z,23.03
2018-09-04T02:08:15.435Z,24.53
2018-09-04T02:10:45.179Z,23.67
2018-09-04T02:13:15.026Z,23.67
2018-09-04T02:15:44.796Z,23.67
2018-09-04T02:18:14.606Z,22.67
2018-09-04T02:20:44.391Z,22.77
2018-09-04T02:23:38.783Z,23.97
2018-09-04T02:26:08.477Z,22.43
2018-09-04T02:28:38.454Z,22.83
2018-09-04T02:31:08.146Z,25.50
2018-09-04T02:33:37.868Z,23.90
2018-09-04T02:36:07.619Z,23.00
2018-09-04T02:38:37.359Z,23.00
2018-09-04T02:41:07.770Z,25.30
2018-09-04T02:43:37.574Z,23.73
2018-09-04T02:46:07.374Z,24.43
2018-09-04T02:48:37.125Z,25.50
2018-09-04T02:51:07.286Z,24.87
2018-09-04T02:53:37.157Z,24.67
2018-09-04T02:56:06.909Z,27.03
2018-09-04T02:58:36.711Z,24.23
2018-09-04T03:01:06.527Z,25.70
2018-09-04T03:03:36.257Z,24.57
2018-09-04T03:06:06.138Z,25.57
2018-09-04T03:08:35.910Z,24.90
2018-09-04T03:11:05.612Z,25.70
2018-09-04T03:13:35.433Z,25.10
2018-09-04T03:16:05.214Z,24.03
2018-09-04T03:18:34.967Z,24.23
2018-09-04T03:21:04.742Z,25.73
2018-09-04T03:23:34.485Z,25.03
2018-09-04T03:26:04.227Z,27.03
2018-09-04T03:28:34.262Z,24.50
2018-09-04T03:31:04.062Z,24.57
2018-09-04T03:33:34.147Z,24.23
2018-09-04T03:36:03.847Z,24.80
2018-09-04T03:38:33.611Z,23.80
2018-09-04T03:41:03.347Z,23.73
2018-09-04T03:43:33.087Z,24.20
2018-09-04T03:46:02.864Z,22.90
2018-09-04T03:48:32.661Z,24.27
2018-09-04T03:51:02.431Z,24.40
2018-09-04T03:53:32.246Z,24.63
2018-09-04T03:56:02.028Z,24.80
2018-09-04T03:58:32.100Z,22.60
2018-09-04T04:01:01.809Z,24.70
2018-09-04T04:03:31.590Z,24.77
2018-09-04T04:06:01.322Z,23.90
2018-09-04T04:08:31.092Z,23.00
2018-09-04T04:11:00.887Z,24.07
2018-09-04T04:13:30.658Z,25.87
2018-09-04T04:16:00.401Z,24.87
2018-09-04T04:18:30.102Z,26.43
2018-09-04T04:21:00.821Z,25.67
2018-09-04T04:23:31.251Z,27.03
2018-09-04T04:26:02.445Z,28.97
2018-09-04T04:28:32.374Z,25.90
2018-09-04T04:31:02.055Z,26.23
2018-09-04T04:33:31.803Z,26.43
2018-09-04T04:36:01.590Z,26.27
2018-09-04T04:38:31.367Z,25.57
2018-09-04T04:41:01.104Z,25.83
2018-09-04T04:43:30.929Z,27.47
2018-09-04T04:46:00.696Z,24.33
2018-09-04T04:48:30.448Z,25.70
2018-09-04T04:51:00.289Z,26.37
2018-09-04T04:53:30.081Z,25.17
2018-09-04T04:55:59.850Z,25.43
2018-09-04T04:58:29.610Z,26.57
2018-09-04T05:00:59.673Z,25.83
2018-09-04T05:03:29.440Z,27.30
2018-09-04T05:05:59.182Z,28.03
2018-09-04T05:08:29.122Z,28.00
2018-09-04T05:10:59.020Z,27.33
2018-09-04T05:13:28.795Z,27.27
2018-09-04T05:15:58.522Z,29.20
2018-09-04T05:18:28.265Z,26.97
2018-09-04T05:20:58.137Z,27.47
2018-09-04T05:23:33.889Z,27.73
2018-09-04T05:26:03.690Z,26.43
2018-09-04T05:28:33.670Z,27.40
2018-09-04T05:31:03.486Z,26.83
2018-09-04T05:33:36.921Z,27.47
2018-09-04T05:36:07.106Z,27.47
2018-09-04T05:38:37.270Z,27.80
2018-09-04T05:41:07.360Z,28.30
2018-09-04T05:43:42.177Z,27.67
2018-09-04T05:46:15.372Z,29.13
2018-09-04T05:48:45.137Z,28.63
2018-09-04T05:51:14.837Z,28.10
2018-09-04T05:53:44.652Z,29.87
2018-09-04T05:56:14.486Z,29.40
2018-09-04T05:58:44.262Z,29.00
2018-09-04T06:01:14.008Z,29.40
2018-09-04T06:03:43.777Z,29.70
2018-09-04T06:06:13.517Z,29.60
2018-09-04T06:08:43.197Z,28.17
2018-09-04T06:11:12.962Z,29.40
2018-09-04T06:13:42.800Z,27.90
2018-09-04T06:16:12.524Z,28.27
2018-09-04T06:18:42.204Z,31.10
2018-09-04T06:21:11.996Z,29.87
2018-09-04T06:23:41.778Z,30.43
2018-09-04T06:26:11.519Z,30.43
2018-09-04T06:28:41.444Z,30.77
2018-09-04T06:31:11.200Z,31.07
2018-09-04T06:33:41.009Z,29.80
2018-09-04T06:36:10.761Z,31.07
2018-09-04T06:38:40.662Z,30.40
2018-09-04T06:41:10.417Z,31.53
2018-09-04T06:43:40.196Z,32.70
2018-09-04T06:46:10.012Z,31.53
2018-09-04T06:48:39.871Z,31.13
2018-09-04T06:51:09.674Z,33.60
2018-09-04T06:53:39.419Z,33.77
2018-09-04T06:56:09.261Z,33.10
2018-09-04T06:58:39.039Z,32.30
2018-09-04T07:01:08.761Z,32.57
2018-09-04T07:03:38.608Z,32.47
2018-09-04T07:06:08.440Z,30.83
2018-09-04T07:08:38.065Z,32.50
2018-09-04T07:11:07.804Z,31.07
2018-09-04T07:13:37.761Z,31.80
2018-09-04T07:16:07.528Z,31.23
2018-09-04T07:18:37.239Z,32.87
2018-09-04T07:21:07.057Z,31.47
2018-09-04T07:23:36.724Z,33.50
2018-09-04T07:26:06.605Z,33.77
2018-09-04T07:28:36.364Z,33.43
2018-09-04T07:31:06.124Z,32.50
2018-09-04T07:33:35.910Z,32.13
2018-09-04T07:36:06.123Z,33.07
2018-09-04T07:38:35.940Z,33.20
2018-09-04T07:41:06.049Z,32.37
2018-09-04T07:43:35.905Z,33.70
2018-09-04T07:46:05.901Z,34.57
2018-09-04T07:48:35.629Z,34.97
2018-09-04T07:51:05.564Z,35.00
2018-09-04T07:53:35.382Z,35.33
2018-09-04T07:56:05.498Z,33.60
2018-09-04T07:58:35.255Z,34.93
2018-09-04T08:01:05.224Z,36.03
2018-09-04T08:03:35.090Z,34.87
2018-09-04T08:06:04.878Z,34.33
2018-09-04T08:08:34.715Z,37.00
2018-09-04T08:11:04.621Z,33.40
2018-09-04T08:13:34.344Z,33.77
2018-09-04T08:16:04.234Z,33.00
2018-09-04T08:18:34.086Z,33.87
2018-09-04T08:21:03.938Z,32.97
2018-09-04T08:23:33.712Z,34.77
2018-09-04T08:26:03.611Z,31.77
2018-09-04T08:28:33.335Z,34.37
2018-09-04T08:31:03.177Z,32.53
2018-09-04T08:33:33.015Z,33.00
2018-09-04T08:36:02.779Z,32.63
2018-09-04T08:38:32.701Z,34.83
2018-09-04T08:41:02.475Z,35.23
2018-09-04T08:43:32.230Z,33.60
2018-09-04T08:46:01.980Z,32.57
2018-09-04T08:48:31.718Z,32.93
2018-09-04T08:51:01.478Z,31.77
2018-09-04T08:53:31.275Z,33.10
2018-09-04T08:56:01.173Z,32.55
2018-09-04T08:58:31.073Z,32.70
2018-09-04T09:01:00.953Z,33.55
2018-09-04T09:03:30.982Z,32.90
2018-09-04T09:06:00.784Z,31.87
2018-09-04T09:08:30.611Z,28.80
2018-09-04T09:11:00.431Z,31.25
2018-09-04T09:13:30.271Z,30.77
2018-09-04T09:16:00.009Z,29.67
2018-09-04T09:18:30.176Z,27.73
2018-09-04T09:21:00.066Z,30.67
2018-09-04T09:23:29.830Z,29.37
2018-09-04T09:25:59.615Z,30.82
2018-09-04T09:28:29.608Z,28.75
2018-09-04T09:30:59.388Z,26.42
2018-09-04T09:33:29.413Z,27.60
2018-09-04T09:35:59.219Z,25.80
2018-09-04T09:38:29.154Z,26.80
2018-09-04T09:40:58.860Z,27.07
2018-09-04T09:43:28.710Z,25.00
2018-09-04T09:45:58.424Z,25.48
2018-09-04T09:48:32.233Z,25.20
2018-09-04T09:51:02.024Z,25.80
2018-09-04T09:53:31.929Z,24.02
2018-09-04T09:56:01.536Z,25.15
2018-09-04T09:58:31.321Z,23.42
2018-09-04T10:01:06.127Z,24.15
2018-09-04T10:03:41.030Z,25.32
2018-09-04T10:06:10.743Z,23.57
2018-09-04T10:08:40.520Z,24.18
2018-09-04T10:11:10.235Z,25.70
2018-09-04T10:13:40.035Z,22.98
2018-09-04T10:16:09.761Z,25.68
2018-09-04T10:18:39.545Z,26.70
2018-09-04T10:21:09.460Z,24.43
2018-09-04T10:23:39.339Z,24.25
2018-09-04T10:26:10.094Z,28.10
2018-09-04T10:28:40.019Z,26.42
2018-09-04T10:31:09.809Z,23.22
2018-09-04T10:33:39.803Z,20.60
2018-09-04T10:36:09.559Z,21.40
2018-09-04T10:38:39.291Z,22.48
2018-09-04T10:41:14.960Z,21.85
2018-09-04T10:43:44.709Z,20.27
2018-09-04T10:46:15.480Z,22.67
2018-09-04T10:48:45.281Z,20.55
2018-09-04T10:51:15.130Z,23.50
2018-09-04T10:53:44.991Z,22.10
2018-09-04T10:56:14.981Z,20.05
2018-09-04T10:58:44.805Z,21.33
2018-09-04T11:01:14.555Z,19.70
2018-09-04T11:03:44.320Z,20.32
2018-09-04T11:06:14.039Z,22.25
2018-09-04T11:08:43.753Z,22.45
2018-09-04T11:11:13.509Z,21.60
2018-09-04T11:13:43.298Z,20.12
2018-09-04T11:16:13.052Z,20.35
2018-09-04T11:18:42.863Z,21.00
2018-09-04T11:21:12.664Z,20.75
2018-09-04T11:23:42.694Z,19.98
2018-09-04T11:26:12.625Z,19.62
2018-09-04T11:28:48.541Z,18.70
2018-09-04T11:31:19.101Z,17.62
2018-09-04T11:33:49.859Z,18.32
2018-09-04T11:36:20.839Z,16.27
2018-09-04T11:38:51.249Z,16.30
2018-09-04T11:41:21.310Z,15.80
2018-09-04T11:43:51.143Z,15.60
2018-09-04T11:46:20.872Z,16.85
2018-09-04T11:48:50.666Z,14.68
2018-09-04T11:51:20.768Z,14.93
2018-09-04T11:53:50.596Z,13.90
2018-09-04T11:56:20.689Z,13.98
2018-09-04T11:58:50.519Z,14.38
2018-09-04T12:01:23.146Z,15.98
2018-09-04T12:03:52.896Z,16.15
2018-09-04T12:06:22.666Z,16.42
2018-09-04T12:08:52.641Z,13.27
2018-09-04T12:11:22.467Z,14.18
2018-09-04T12:13:52.413Z,16.57
2018-09-04T12:16:22.204Z,16.00
2018-09-04T12:18:52.440Z,14.85
2018-09-04T12:21:22.189Z,15.35
2018-09-04T12:23:51.882Z,14.20
2018-09-04T12:26:21.608Z,15.20
2018-09-04T12:28:51.360Z,15.10
2018-09-04T12:31:21.158Z,16.23
2018-09-04T12:33:51.163Z,13.00
2018-09-04T12:36:21.148Z,13.13
2018-09-04T12:38:50.879Z,14.13
2018-09-04T12:41:20.617Z,14.45
2018-09-04T12:43:50.361Z,15.03
2018-09-04T12:46:20.795Z,14.43
2018-09-04T12:48:51.800Z,15.23
2018-09-04T12:51:21.556Z,15.60
2018-09-04T12:53:51.378Z,13.62
2018-09-04T12:56:21.217Z,13.90
2018-09-04T12:58:50.921Z,14.90
2018-09-04T13:01:20.648Z,16.07
2018-09-04T13:03:50.356Z,16.05
2018-09-04T13:06:20.121Z,17.77
2018-09-04T13:08:49.905Z,16.42
2018-09-04T13:11:19.682Z,15.65
2018-09-04T13:13:49.538Z,14.28
2018-09-04T13:16:19.248Z,14.20
2018-09-04T13:18:49.097Z,15.85
2018-09-04T13:21:22.194Z,14.65
2018-09-04T13:23:51.879Z,14.18
2018-09-04T13:26:21.645Z,12.82
2018-09-04T13:28:51.685Z,14.38
2018-09-04T13:31:21.475Z,13.98
2018-09-04T13:33:51.309Z,14.85
2018-09-04T13:36:21.077Z,12.75
2018-09-04T13:38:50.780Z,11.93
2018-09-04T13:41:20.464Z,11.33
2018-09-04T13:43:50.275Z,11.08
2018-09-04T13:46:20.030Z,10.75
2018-09-04T13:48:49.790Z,11.40
2018-09-04T13:51:19.592Z,12.50
2018-09-04T13:53:49.288Z,12.45
2018-09-04T13:56:18.994Z,12.98
2018-09-04T13:58:48.736Z,11.48
2018-09-04T14:01:18.428Z,11.25
2018-09-04T14:03:48.136Z,11.65
2018-09-04T14:06:17.835Z,10.15
2018-09-04T14:08:47.570Z,10.70
2018-09-04T14:11:17.426Z,11.40
2018-09-04T14:13:47.592Z,11.10
2018-09-04T14:16:19.458Z,10.40
2018-09-04T14:18:49.137Z,14.05
2018-09-04T14:21:18.866Z,12.88
2018-09-04T14:23:48.739Z,13.43
2018-09-04T14:26:18.459Z,14.43
2018-09-04T14:29:06.431Z,14.30
2018-09-04T14:31:18.177Z,13.98
2018-09-04T14:33:47.881Z,13.98
2018-09-04T14:36:17.662Z,13.18
2018-09-04T14:38:47.423Z,13.70
2018-09-04T15:14:49.332Z,10.93
2018-09-04T15:17:19.424Z,10.45
2018-09-04T15:19:49.123Z,11.20
2018-09-04T15:22:18.901Z,11.00
2018-09-04T15:24:48.576Z,11.65
2018-09-04T15:27:18.521Z,11.10
2018-09-04T15:29:48.184Z,11.28
2018-09-04T15:32:17.836Z,11.30
2018-09-04T15:34:47.509Z,10.18
2018-09-04T15:37:17.131Z,8.68
2018-09-04T15:39:46.841Z,8.10
2018-09-04T15:42:16.752Z,8.78
2018-09-04T15:44:46.365Z,9.15
2018-09-04T15:47:16.034Z,7.92
2018-09-04T15:49:46.964Z,8.43
2018-09-04T15:52:17.369Z,7.78
2018-09-04T15:54:46.984Z,10.43
2018-09-04T15:57:16.696Z,8.78
2018-09-04T15:59:46.384Z,9.00
2018-09-04T16:02:16.044Z,8.70
2018-09-04T16:04:45.686Z,9.50
2018-09-04T16:07:15.376Z,10.53
2018-09-04T16:09:45.156Z,9.98
2018-09-04T16:12:14.836Z,10.10
2018-09-04T16:14:44.523Z,10.60
2018-09-04T16:17:14.498Z,11.55
2018-09-04T16:19:44.097Z,9.70
2018-09-04T16:22:13.740Z,9.20
2018-09-04T16:24:43.487Z,7.42
2018-09-04T16:27:18.420Z,8.43
2018-09-04T16:30:16.329Z,8.03
2018-09-04T16:32:48.320Z,7.85
2018-09-04T16:35:24.638Z,7.67
2018-09-04T16:37:55.829Z,6.80
2018-09-04T16:40:27.640Z,6.65
2018-09-04T16:43:00.844Z,6.62
2018-09-04T16:45:39.378Z,6.87
2018-09-04T16:48:13.023Z,7.73
2018-09-04T16:51:02.477Z,8.55
2018-09-04T16:53:40.339Z,7.87
2018-09-04T16:56:14.743Z,8.33
2018-09-04T16:58:56.296Z,9.33
2018-09-04T17:01:30.915Z,9.83
2018-09-04T17:04:04.169Z,9.58
2018-09-04T17:06:48.789Z,10.65
2018-09-04T17:12:41.366Z,9.28
2018-09-04T17:15:24.562Z,9.88
2018-09-04T17:18:32.419Z,10.43
2018-09-04T17:21:29.731Z,10.28
2018-09-04T17:24:03.066Z,10.08
2018-09-04T17:27:07.192Z,10.32
2018-09-04T17:29:42.670Z,9.20
2018-09-04T17:32:18.193Z,9.70
2018-09-04T17:34:51.303Z,9.58
2018-09-04T17:37:31.427Z,9.83
2018-09-04T17:40:03.531Z,9.00
2018-09-04T17:42:44.030Z,9.15
2018-09-04T17:45:20.215Z,11.63
2018-09-04T17:47:54.397Z,10.78
2018-09-04T17:50:31.942Z,10.85
2018-09-04T17:53:38.507Z,10.50
2018-09-04T17:56:24.511Z,9.60
2018-09-04T17:59:14.708Z,10.15
2018-09-04T18:01:47.155Z,9.73
2018-09-04T18:04:22.750Z,10.08
2018-09-04T18:10:27.753Z,8.95
2018-09-04T18:13:08.043Z,9.08
2018-09-04T18:15:56.880Z,9.03
2018-09-04T18:18:35.843Z,10.03
2018-09-04T18:21:09.909Z,10.60
2018-09-04T18:23:39.690Z,9.95
2018-09-04T18:26:09.278Z,9.98
2018-09-04T18:28:39.259Z,10.55
2018-09-04T18:31:09.021Z,10.55
2018-09-04T18:33:38.761Z,10.23
2018-09-04T18:36:08.693Z,10.95
2018-09-04T18:38:38.481Z,10.67
2018-09-04T18:41:09.094Z,11.10
2018-09-04T18:43:38.813Z,11.57
2018-09-04T18:46:08.603Z,11.25
2018-09-04T18:48:38.281Z,11.22
2018-09-04T18:51:08.038Z,11.97
2018-09-04T18:53:37.762Z,11.35
2018-09-04T18:56:07.506Z,11.65
2018-09-04T18:58:37.171Z,11.75
2018-09-04T19:01:06.900Z,10.32
2018-09-04T19:03:36.623Z,9.35
2018-09-04T19:06:06.338Z,8.85
2018-09-04T19:08:36.063Z,9.58
2018-09-04T19:11:05.900Z,9.50
2018-09-04T19:13:35.623Z,9.30
2018-09-04T19:16:05.520Z,9.58
2018-09-04T19:18:35.186Z,10.13
2018-09-04T19:21:04.966Z,10.88
2018-09-04T19:23:35.300Z,10.10
2018-09-04T19:26:08.885Z,10.68
2018-09-04T19:28:38.585Z,11.22
2018-09-04T19:31:08.406Z,10.88
2018-09-04T19:33:38.153Z,10.93
2018-09-04T19:36:08.193Z,11.53
2018-09-04T19:38:38.005Z,10.95
2018-09-04T19:41:09.422Z,10.78
2018-09-04T19:43:40.604Z,11.38
2018-09-04T19:46:13.094Z,11.65
2018-09-04T19:48:43.370Z,11.33
2018-09-04T19:51:13.862Z,11.03
2018-09-04T19:53:43.825Z,11.45
2018-09-04T19:56:13.650Z,11.60
2018-09-04T19:58:43.742Z,11.50
2018-09-04T20:01:13.517Z,12.47
2018-09-04T20:03:43.250Z,12.63
2018-09-04T20:06:14.386Z,12.93
2018-09-04T20:08:44.722Z,12.23
2018-09-04T20:11:15.774Z,12.03
2018-09-04T20:13:45.830Z,12.88
2018-09-04T20:16:15.829Z,12.35
2018-09-04T20:18:45.597Z,11.10
2018-09-04T20:21:15.364Z,12.80
2018-09-04T20:23:45.113Z,12.97
2018-09-04T20:26:15.143Z,11.68
2018-09-04T20:28:45.185Z,12.88
2018-09-04T20:31:15.041Z,12.93
2018-09-04T20:33:45.734Z,12.40
2018-09-04T20:36:15.618Z,13.60
2018-09-04T20:38:45.717Z,13.32
2018-09-04T20:41:15.541Z,13.68
2018-09-04T20:43:45.832Z,11.20
2018-09-04T20:46:15.790Z,11.83
2018-09-04T20:48:45.825Z,11.93
2018-09-04T20:51:15.946Z,11.55
2018-09-04T20:53:45.820Z,12.10
2018-09-04T20:56:15.477Z,11.95
2018-09-04T20:59:01.776Z,12.75
2018-09-04T21:01:48.180Z,12.63
2018-09-04T21:04:35.106Z,13.22
2018-09-04T21:07:02.961Z,13.57
2018-09-04T21:09:42.764Z,14.15
2018-09-04T21:12:21.639Z,13.72
2018-09-04T21:14:52.129Z,14.50
2018-09-04T21:17:21.912Z,13.83
2018-09-04T21:19:51.927Z,13.38
2018-09-04T21:22:22.833Z,12.37
2018-09-04T21:24:53.087Z,11.93
2018-09-04T21:27:24.144Z,13.43
2018-09-04T21:30:04.964Z,12.28
2018-09-04T21:32:43.625Z,12.40
2018-09-04T21:35:20.773Z,12.18
2018-09-04T21:37:58.697Z,13.20
2018-09-04T21:40:37.546Z,12.83
2018-09-04T21:43:14.558Z,12.37
2018-09-04T21:45:50.412Z,14.00
2018-09-04T21:48:26.185Z,13.55
2018-09-04T21:51:02.863Z,13.58
2018-09-04T21:53:36.980Z,12.98
2018-09-04T21:56:12.881Z,13.60
2018-09-04T21:58:46.835Z,13.23
2018-09-04T22:01:24.209Z,13.40
2018-09-04T22:04:02.455Z,13.97
2018-09-04T22:06:39.958Z,13.50
2018-09-04T22:09:18.936Z,13.80
2018-09-04T22:11:57.165Z,14.77
2018-09-04T22:14:34.809Z,14.53
2018-09-04T22:17:15.609Z,15.47
2018-09-04T22:19:53.473Z,15.50
2018-09-04T22:22:32.284Z,16.13
2018-09-04T22:25:07.831Z,14.97
2018-09-04T22:27:44.935Z,15.00
2018-09-04T22:30:25.033Z,15.43
2018-09-04T22:33:03.106Z,15.80
2018-09-04T22:35:41.159Z,16.07
2018-09-04T22:38:17.788Z,16.30
2018-09-04T22:40:57.374Z,15.87
2018-09-04T22:43:37.307Z,17.80
2018-09-04T22:46:13.601Z,16.30
2018-09-04T22:48:51.640Z,16.13
2018-09-04T22:51:38.126Z,16.60
2018-09-04T22:54:17.693Z,16.70
2018-09-04T22:56:55.660Z,15.60
2018-09-04T22:59:35.280Z,15.33
2018-09-04T23:02:12.250Z,15.87
2018-09-04T23:04:49.226Z,16.30
2018-09-04T23:07:28.265Z,16.13
2018-09-04T23:10:05.117Z,16.20
2018-09-04T23:12:43.961Z,16.47
2018-09-04T23:15:22.297Z,16.23
2018-09-04T23:17:59.050Z,16.13
2018-09-04T23:20:37.433Z,17.10
2018-09-04T23:23:15.505Z,16.47
2018-09-04T23:25:53.144Z,16.73
2018-09-04T23:28:30.147Z,15.27
2018-09-04T23:31:08.469Z,16.57
2018-09-04T23:33:47.600Z,15.93
2018-09-04T23:59:34.604Z,16.83
